createdAt,value
2018-09-04T00:02:25.493Z,27.80
2018-09-04T00:04:54.473Z,28.87
2018-09-04T00:07:23.691Z,25.87
2018-09-04T00:09:53.076Z,27.07
2018-09-04T00:12:21.991Z,26.30
2018-09-04T00:14:52.447Z,26.63
2018-09-04T00:17:21.835Z,27.03
2018-09-04T00:19:50.804Z,25.10
2018-09-04T00:22:19.726Z,26.07
2018-09-04T00:24:48.649Z,27.47
2018-09-04T00:27:17.626Z,26.37
2018-09-04T00:29:46.565Z,27.63
2018-09-04T00:32:15.516Z,26.97
2018-09-04T00:34:44.445Z,27.30
2018-09-04T00:37:13.969Z,27.40
2018-09-04T00:39:43.156Z,25.93
2018-09-04T00:42:12.538Z,26.97
2018-09-04T00:44:41.500Z,25.60
2018-09-04T00:47:10.469Z,25.50
2018-09-04T00:49:39.400Z,23.40
2018-09-04T00:52:08.371Z,25.43
2018-09-04T00:54:37.729Z,26.70
2018-09-04T00:57:06.724Z,25.00
2018-09-04T00:59:35.651Z,25.93
2018-09-04T01:02:04.625Z,24.80
2018-09-04T01:04:33.573Z,23.57
2018-09-04T01:07:02.612Z,24.10
2018-09-04T01:09:32.890Z,24.30
2018-09-04T01:12:01.860Z,25.20
2018-09-04T01:14:30.828Z,25.97
2018-09-04T01:16:59.771Z,24.47
2018-09-04T01:19:28.712Z,27.33
2018-09-04T01:21:57.705Z,25.47
2018-09-04T01:24:26.625Z,26.43
2018-09-04T01:26:55.560Z,25.20
2018-09-04T01:29:24.487Z,25.10
2018-09-04T01:31:53.424Z,26.90
2018-09-04T01:34:22.390Z,26.93
2018-09-04T01:36:51.344Z,26.40
2018-09-04T01:39:20.294Z,27.40
2018-09-04T01:41:49.237Z,26.03
2018-09-04T01:44:18.236Z,29.40
2018-09-04T01:46:47.177Z,26.97
2018-09-04T01:49:16.104Z,27.10
2018-09-04T01:51:45.061Z,27.80
2018-09-04T01:54:13.999Z,27.33
2018-09-04T01:56:43.619Z,29.53
2018-09-04T01:59:12.585Z,28.17
2018-09-04T02:01:43.340Z,27.40
2018-09-04T02:04:12.318Z,28.47
2018-09-04T02:06:41.304Z,27.83
2018-09-04T02:09:10.228Z,27.10
2018-09-04T02:11:39.274Z,27.33
2018-09-04T02:14:08.237Z,25.77
2018-09-04T02:16:37.210Z,27.43
2018-09-04T02:19:06.490Z,26.50
2018-09-04T02:21:35.516Z,26.63
2018-09-04T02:24:04.443Z,26.37
2018-09-04T02:26:33.388Z,25.70
2018-09-04T02:29:04.073Z,27.17
2018-09-04T02:31:32.979Z,26.20
2018-09-04T02:34:02.806Z,26.40
2018-09-04T02:36:31.788Z,25.70
2018-09-04T02:39:00.761Z,26.10
2018-09-04T02:41:29.698Z,28.80
2018-09-04T02:43:58.668Z,30.50
2018-09-04T02:46:27.611Z,29.70
2018-09-04T02:48:56.581Z,29.77
2018-09-04T02:51:25.534Z,30.47
2018-09-04T02:53:54.517Z,31.10
2018-09-04T02:56:23.469Z,30.40
2018-09-04T02:58:52.574Z,28.50
2018-09-04T03:01:21.500Z,28.27
2018-09-04T03:03:51.829Z,30.00
2018-09-04T03:06:20.777Z,32.33
2018-09-04T03:08:49.788Z,30.77
2018-09-04T03:11:18.772Z,31.87
2018-09-04T03:13:47.825Z,29.27
2018-09-04T03:16:16.804Z,32.50
2018-09-04T03:18:45.797Z,32.23
2018-09-04T03:21:14.728Z,31.13
2018-09-04T03:23:43.707Z,31.20
2018-09-04T03:26:12.661Z,33.30
2018-09-04T03:28:41.618Z,30.87
2018-09-04T03:31:10.685Z,32.73
2018-09-04T03:33:39.640Z,31.27
2018-09-04T03:36:08.592Z,32.80
2018-09-04T03:38:37.553Z,31.10
2018-09-04T03:41:06.509Z,31.40
2018-09-04T03:43:36.625Z,32.50
2018-09-04T03:46:06.150Z,32.63
2018-09-04T03:48:35.101Z,32.07
2018-09-04T03:51:04.534Z,32.37
2018-09-04T03:53:33.489Z,32.40
2018-09-04T03:56:02.432Z,31.40
2018-09-04T03:58:31.427Z,32.63
2018-09-04T04:01:00.421Z,34.20
2018-09-04T04:03:29.388Z,31.63
2018-09-04T04:05:58.310Z,32.37
2018-09-04T04:08:28.089Z,33.10
2018-09-04T04:10:57.018Z,33.03
2018-09-04T04:13:26.038Z,32.20
2018-09-04T04:15:55.010Z,32.93
2018-09-04T04:18:23.955Z,34.07
2018-09-04T04:20:57.591Z,33.47
2018-09-04T04:23:27.357Z,34.10
2018-09-04T04:25:57.319Z,33.40
2018-09-04T04:28:26.345Z,33.40
2018-09-04T04:30:55.276Z,33.23
2018-09-04T04:33:24.273Z,34.27
2018-09-04T04:35:53.215Z,32.33
2018-09-04T04:38:22.151Z,30.50
2018-09-04T04:40:51.185Z,31.30
2018-09-04T04:43:20.118Z,31.70
2018-09-04T04:45:49.082Z,31.83
2018-09-04T04:48:18.101Z,32.93
2018-09-04T04:50:47.006Z,29.87
2018-09-04T04:53:15.920Z,32.13
2018-09-04T04:55:44.944Z,29.87
2018-09-04T04:58:13.911Z,28.87
2018-09-04T05:00:43.652Z,29.37
2018-09-04T05:03:13.017Z,30.97
2018-09-04T05:05:42.165Z,32.57
2018-09-04T05:08:11.113Z,29.30
2018-09-04T05:10:40.058Z,29.47
2018-09-04T05:13:09.409Z,29.70
2018-09-04T05:15:38.409Z,31.47
2018-09-04T05:18:07.397Z,30.17
2018-09-04T05:20:36.370Z,31.60
2018-09-04T05:23:05.458Z,31.10
2018-09-04T05:25:34.417Z,30.57
2018-09-04T05:28:03.417Z,28.60
2018-09-04T05:30:32.356Z,28.73
2018-09-04T05:33:06.537Z,28.00
2018-09-04T05:35:40.789Z,27.73
2018-09-04T05:38:09.717Z,29.20
2018-09-04T05:40:39.797Z,28.63
2018-09-04T05:43:10.390Z,26.93
2018-09-04T05:45:39.737Z,27.03
2018-09-04T05:48:12.490Z,25.63
2018-09-04T05:50:41.464Z,25.87
2018-09-04T05:53:10.400Z,25.77
2018-09-04T05:55:39.451Z,24.90
2018-09-04T05:58:08.393Z,27.03
2018-09-04T06:00:42.737Z,23.23
2018-09-04T06:03:12.164Z,21.90
2018-09-04T06:05:41.131Z,22.37
2018-09-04T06:08:10.092Z,21.63
2018-09-04T06:10:39.043Z,20.10
2018-09-04T06:13:08.525Z,20.10
2018-09-04T06:15:37.518Z,19.13
2018-09-04T06:18:06.594Z,17.50
2018-09-04T06:20:35.526Z,18.20
2018-09-04T06:23:04.568Z,17.90
2018-09-04T06:25:33.527Z,19.07
2018-09-04T06:28:02.729Z,17.50
2018-09-04T06:30:31.897Z,17.60
2018-09-04T06:33:00.997Z,18.80
2018-09-04T06:35:30.129Z,17.13
2018-09-04T06:37:59.205Z,19.13
2018-09-04T06:40:28.298Z,19.20
2018-09-04T06:42:57.407Z,17.77
2018-09-04T06:45:26.537Z,18.87
2018-09-04T06:47:55.639Z,18.87
2018-09-04T06:50:24.751Z,18.90
2018-09-04T06:52:53.866Z,17.97
2018-09-04T06:55:22.944Z,18.33
2018-09-04T06:57:52.385Z,18.13
2018-09-04T07:00:21.683Z,18.30
2018-09-04T07:02:51.007Z,18.37
2018-09-04T07:05:20.317Z,18.53
2018-09-04T07:07:49.484Z,17.60
2018-09-04T07:10:18.582Z,18.00
2018-09-04T07:12:47.723Z,18.10
2018-09-04T07:15:17.059Z,16.20
2018-09-04T07:17:46.259Z,18.30
2018-09-04T07:20:15.529Z,16.80
2018-09-04T07:22:54.015Z,17.00
2018-09-04T07:25:22.964Z,17.10
2018-09-04T07:27:51.968Z,17.20
2018-09-04T07:30:20.950Z,17.23
2018-09-04T07:32:51.131Z,17.17
2018-09-04T07:35:20.119Z,18.23
2018-09-04T07:37:50.409Z,17.90
2018-09-04T07:40:19.332Z,19.07
2018-09-04T07:42:48.414Z,17.80
2018-09-04T07:45:17.529Z,18.47
2018-09-04T07:47:46.229Z,18.47
2018-09-04T07:50:15.533Z,18.27
2018-09-04T07:52:44.505Z,18.10
2018-09-04T07:55:13.445Z,18.17
2018-09-04T07:57:43.188Z,18.30
2018-09-04T08:00:12.225Z,19.50
2018-09-04T08:02:41.170Z,19.17
2018-09-04T08:05:10.134Z,18.87
2018-09-04T08:07:39.132Z,19.43
2018-09-04T08:10:08.167Z,19.70
2018-09-04T08:12:37.081Z,17.73
2018-09-04T08:15:06.106Z,19.40
2018-09-04T08:17:35.102Z,20.30
2018-09-04T08:20:04.056Z,19.23
2018-09-04T08:22:33.880Z,17.63
2018-09-04T08:25:02.861Z,16.53
2018-09-04T08:27:31.848Z,18.87
2018-09-04T08:30:00.801Z,18.50
2018-09-04T08:32:29.766Z,17.80
2018-09-04T08:34:58.714Z,18.37
2018-09-04T08:37:27.694Z,19.60
2018-09-04T08:39:56.674Z,20.00
2018-09-04T08:42:26.174Z,21.83
2018-09-04T08:44:55.105Z,21.27
2018-09-04T08:47:24.083Z,22.27
2018-09-04T08:49:53.043Z,18.90
2018-09-04T08:52:22.026Z,20.00
2018-09-04T08:54:52.138Z,18.00
2018-09-04T08:57:21.894Z,18.50
2018-09-04T08:59:50.835Z,18.73
2018-09-04T09:02:21.970Z,18.60
2018-09-04T09:04:50.922Z,18.93
2018-09-04T09:07:20.013Z,17.10
2018-09-04T09:09:48.985Z,17.17
2018-09-04T09:12:18.018Z,18.23
2018-09-04T09:14:46.987Z,17.30
2018-09-04T09:17:15.933Z,18.27
2018-09-04T09:19:44.994Z,18.00
2018-09-04T09:22:14.050Z,18.10
2018-09-04T09:24:43.253Z,17.27
2018-09-04T09:27:12.763Z,17.87
2018-09-04T09:29:41.773Z,17.20
2018-09-04T09:32:10.721Z,16.33
2018-09-04T09:34:39.704Z,17.90
2018-09-04T09:37:08.696Z,16.17
2018-09-04T09:39:37.615Z,16.33
2018-09-04T09:42:06.641Z,15.80
2018-09-04T09:44:35.661Z,16.50
2018-09-04T09:47:04.766Z,17.23
2018-09-04T09:49:33.723Z,15.67
2018-09-04T09:52:02.645Z,16.67
2018-09-04T09:54:31.605Z,17.13
2018-09-04T09:57:00.779Z,15.90
2018-09-04T09:59:30.952Z,15.13
2018-09-04T10:02:05.422Z,15.47
2018-09-04T10:04:34.646Z,15.03
2018-09-04T10:07:03.844Z,15.60
2018-09-04T10:09:33.032Z,17.00
2018-09-04T10:12:02.249Z,15.50
2018-09-04T10:14:31.584Z,15.73
2018-09-04T10:17:00.839Z,15.00
2018-09-04T10:19:30.008Z,16.03
2018-09-04T10:21:59.179Z,15.27
2018-09-04T10:24:28.380Z,15.70
2018-09-04T10:26:57.619Z,14.97
2018-09-04T10:29:26.966Z,15.40
2018-09-04T10:31:57.236Z,14.90
2018-09-04T10:34:26.416Z,14.93
2018-09-04T10:36:55.579Z,15.67
2018-09-04T10:39:30.015Z,14.40
2018-09-04T10:41:59.197Z,13.20
2018-09-04T10:44:32.447Z,14.43
2018-09-04T10:47:02.199Z,14.30
2018-09-04T10:49:31.375Z,14.53
2018-09-04T10:52:00.631Z,14.60
2018-09-04T10:54:31.338Z,13.93
2018-09-04T10:57:00.539Z,14.07
2018-09-04T10:59:29.717Z,13.30
2018-09-04T11:01:58.882Z,12.47
2018-09-04T11:04:28.053Z,12.93
2018-09-04T11:06:57.282Z,13.63
2018-09-04T11:09:26.554Z,12.50
2018-09-04T11:11:55.679Z,12.63
2018-09-04T11:14:24.854Z,12.20
2018-09-04T11:16:54.843Z,12.17
2018-09-04T11:19:24.086Z,12.47
2018-09-04T11:21:53.274Z,12.23
2018-09-04T11:24:23.225Z,13.80
2018-09-04T11:26:52.167Z,11.70
2018-09-04T11:29:21.108Z,11.50
2018-09-04T11:31:50.100Z,12.90
2018-09-04T11:34:19.026Z,11.93
2018-09-04T11:36:48.014Z,11.30
2018-09-04T11:39:16.941Z,11.13
2018-09-04T11:41:45.905Z,11.67
2018-09-04T11:44:14.862Z,11.60
2018-09-04T11:46:43.953Z,11.80
2018-09-04T11:49:12.877Z,11.70
2018-09-04T11:51:41.865Z,11.90
2018-09-04T11:54:10.806Z,11.10
2018-09-04T11:56:39.745Z,11.57
2018-09-04T11:59:08.832Z,11.90
2018-09-04T12:01:40.376Z,12.90
2018-09-04T12:04:09.417Z,12.60
2018-09-04T12:06:38.415Z,11.60
2018-09-04T12:09:07.418Z,10.90
2018-09-04T12:11:36.373Z,11.70
2018-09-04T12:14:05.298Z,12.00
2018-09-04T12:16:34.257Z,12.37
2018-09-04T12:19:03.215Z,12.13
2018-09-04T12:21:32.178Z,12.37
2018-09-04T12:24:01.132Z,11.67
2018-09-04T12:26:30.096Z,12.50
2018-09-04T12:28:59.032Z,11.70
2018-09-04T12:31:28.042Z,12.40
2018-09-04T12:33:57.040Z,10.90
2018-09-04T12:36:26.008Z,11.80
2018-09-04T12:38:54.952Z,11.47
2018-09-04T12:41:23.916Z,11.17
2018-09-04T12:43:52.830Z,11.10
2018-09-04T12:46:21.829Z,11.43
2018-09-04T12:48:51.757Z,12.03
2018-09-04T12:51:20.741Z,11.73
2018-09-04T12:53:49.693Z,10.30
2018-09-04T12:56:18.689Z,12.23
2018-09-04T12:58:47.605Z,10.80
2018-09-04T13:01:16.589Z,10.30
2018-09-04T13:03:45.521Z,10.73
2018-09-04T13:06:14.466Z,10.73
2018-09-04T13:08:43.413Z,12.30
2018-09-04T13:11:12.420Z,12.17
2018-09-04T13:13:41.366Z,11.53
2018-09-04T13:16:10.366Z,9.77
2018-09-04T13:18:39.338Z,11.63
2018-09-04T13:21:08.257Z,10.60
2018-09-04T13:23:37.209Z,10.57
2018-09-04T13:26:06.552Z,9.33
2018-09-04T13:28:35.584Z,9.37
2018-09-04T13:31:04.526Z,9.03
2018-09-04T13:33:33.489Z,12.43
2018-09-04T13:36:02.438Z,10.17
2018-09-04T13:38:31.448Z,11.73
2018-09-04T13:41:06.735Z,19.27
2018-09-04T13:43:36.288Z,10.40
2018-09-04T13:46:05.387Z,9.70
2018-09-04T13:48:35.025Z,11.10
2018-09-04T13:51:04.065Z,8.93
2018-09-04T13:53:33.058Z,10.87
2018-09-04T13:56:01.982Z,11.47
2018-09-04T13:58:30.935Z,10.93
2018-09-04T14:00:59.939Z,9.67
2018-09-04T14:03:28.888Z,11.37
2018-09-04T14:05:57.829Z,11.00
2018-09-04T14:08:26.792Z,10.70
2018-09-04T14:10:55.739Z,11.10
2018-09-04T14:13:24.771Z,10.67
2018-09-04T14:15:55.769Z,9.20
2018-09-04T14:18:24.723Z,9.00
2018-09-04T14:20:53.689Z,9.80
2018-09-04T14:23:22.737Z,9.57
2018-09-04T14:25:51.809Z,10.70
2018-09-04T14:28:40.975Z,10.53
2018-09-04T14:30:49.847Z,11.27
2018-09-04T14:33:19.293Z,10.30
2018-09-04T14:35:48.223Z,9.90
2018-09-04T14:38:17.189Z,10.00
2018-09-04T14:40:46.138Z,8.90
2018-09-04T14:43:15.105Z,9.43
2018-09-04T14:45:44.507Z,9.40
2018-09-04T14:48:13.590Z,9.00
2018-09-04T14:50:42.597Z,10.10
2018-09-04T14:53:11.499Z,8.30
2018-09-04T14:55:40.929Z,8.90
2018-09-04T14:58:11.548Z,10.10
2018-09-04T15:00:40.524Z,10.47
2018-09-04T15:03:09.457Z,10.57
2018-09-04T15:05:38.462Z,11.20
2018-09-04T15:08:08.399Z,8.83
2018-09-04T15:10:37.392Z,9.57
2018-09-04T15:13:06.308Z,8.63
2018-09-04T15:15:37.857Z,8.90
2018-09-04T15:18:07.219Z,10.07
2018-09-04T15:20:36.629Z,12.03
2018-09-04T15:23:06.501Z,11.13
2018-09-04T15:25:35.530Z,10.03
2018-09-04T15:28:04.417Z,9.10
2018-09-04T15:30:33.479Z,8.17
2018-09-04T15:33:02.406Z,9.03
2018-09-04T15:35:31.360Z,9.03
2018-09-04T15:38:00.317Z,8.80
2018-09-04T15:40:29.539Z,8.77
2018-09-04T15:42:58.534Z,8.40
2018-09-04T15:45:27.546Z,9.10
2018-09-04T15:47:57.605Z,8.70
2018-09-04T15:50:26.685Z,10.00
2018-09-04T15:52:56.045Z,10.07
2018-09-04T15:55:25.030Z,9.80
2018-09-04T15:57:54.005Z,9.00
2018-09-04T16:00:22.965Z,9.17
2018-09-04T16:02:51.899Z,8.03
2018-09-04T16:05:20.868Z,8.87
2018-09-04T16:07:50.140Z,8.67
2018-09-04T16:10:19.716Z,9.67
2018-09-04T16:12:49.897Z,8.63
2018-09-04T16:15:18.859Z,9.00
2018-09-04T16:17:47.806Z,8.37
2018-09-04T16:20:16.746Z,8.87
2018-09-04T16:22:45.734Z,8.60
2018-09-04T16:25:14.714Z,10.07
2018-09-04T16:27:43.624Z,9.80
2018-09-04T16:30:12.673Z,9.40
2018-09-04T16:32:41.593Z,9.10
2018-09-04T16:35:10.571Z,9.97
2018-09-04T16:37:39.513Z,10.17
2018-09-04T16:40:08.473Z,10.37
2018-09-04T16:42:37.404Z,9.07
2018-09-04T16:45:06.429Z,9.83
2018-09-04T16:47:35.359Z,9.53
2018-09-04T16:50:04.313Z,9.47
2018-09-04T16:52:33.265Z,9.33
2018-09-04T16:55:02.228Z,9.57
2018-09-04T16:57:31.321Z,9.50
2018-09-04T17:00:00.250Z,8.87
2018-09-04T17:02:29.212Z,10.03
2018-09-04T17:04:58.203Z,8.70
2018-09-04T17:07:27.156Z,8.33
2018-09-04T17:09:56.125Z,9.33
2018-09-04T17:12:25.125Z,9.40
2018-09-04T17:14:54.049Z,9.90
2018-09-04T17:17:22.995Z,10.03
2018-09-04T17:19:51.935Z,9.70
2018-09-04T17:22:20.920Z,8.93
2018-09-04T17:24:49.845Z,9.93
2018-09-04T17:27:18.792Z,10.00
2018-09-04T17:29:48.769Z,10.73
2018-09-04T17:32:17.770Z,9.20
2018-09-04T17:34:46.660Z,10.03
2018-09-04T17:37:15.624Z,9.40
2018-09-04T17:39:44.581Z,9.50
2018-09-04T17:42:13.646Z,9.03
2018-09-04T17:44:42.565Z,10.03
2018-09-04T17:47:11.516Z,9.47
2018-09-04T17:49:40.452Z,10.47
2018-09-04T17:52:09.414Z,10.80
2018-09-04T17:54:38.551Z,10.40
2018-09-04T17:57:07.728Z,9.40
2018-09-04T17:59:36.702Z,10.37
2018-09-04T18:02:05.859Z,9.97
2018-09-04T18:04:34.864Z,10.10
2018-09-04T18:07:04.709Z,10.87
2018-09-04T18:09:33.629Z,10.97
2018-09-04T18:12:02.709Z,10.27
2018-09-04T18:14:31.515Z,9.17
2018-09-04T18:17:00.710Z,9.70
2018-09-04T18:19:29.914Z,9.23
2018-09-04T18:21:59.116Z,10.33
2018-09-04T18:24:28.318Z,9.87
2018-09-04T18:26:59.257Z,8.93
2018-09-04T18:29:28.606Z,10.50
2018-09-04T18:31:59.637Z,11.80
2018-09-04T18:34:29.047Z,10.80
2018-09-04T18:36:58.693Z,9.37
2018-09-04T18:39:27.656Z,10.10
2018-09-04T18:41:56.781Z,9.30
2018-09-04T18:44:25.725Z,9.80
2018-09-04T18:46:54.900Z,9.60
2018-09-04T18:49:23.862Z,8.90
2018-09-04T18:51:52.860Z,9.77
2018-09-04T18:54:21.784Z,10.33
2018-09-04T18:56:50.709Z,9.57
2018-09-04T18:59:19.661Z,10.27
2018-09-04T19:01:48.595Z,11.20
2018-09-04T19:04:17.536Z,10.00
2018-09-04T19:06:46.518Z,9.60
2018-09-04T19:09:15.453Z,9.87
2018-09-04T19:11:44.392Z,10.00
2018-09-04T19:14:15.538Z,9.87
2018-09-04T19:16:44.467Z,10.17
2018-09-04T19:19:13.451Z,10.30
2018-09-04T19:21:42.409Z,10.20
2018-09-04T19:24:11.499Z,9.40
2018-09-04T19:26:41.716Z,9.87
2018-09-04T19:29:10.664Z,9.33
2018-09-04T19:31:40.955Z,9.63
2018-09-04T19:34:09.907Z,9.10
2018-09-04T19:36:38.869Z,10.30
2018-09-04T19:39:08.457Z,10.13
2018-09-04T19:41:37.614Z,10.23
2018-09-04T19:44:06.684Z,10.43
2018-09-04T19:46:35.646Z,10.57
2018-09-04T19:49:04.947Z,11.17
2018-09-04T19:51:33.870Z,11.67
2018-09-04T19:54:02.860Z,10.50
2018-09-04T19:56:31.820Z,9.97
2018-09-04T19:59:00.797Z,9.57
2018-09-04T20:01:29.836Z,9.43
2018-09-04T20:03:58.772Z,10.53
2018-09-04T20:06:27.749Z,11.10
2018-09-04T20:08:56.740Z,10.30
2018-09-04T20:11:25.762Z,10.07
2018-09-04T20:13:54.727Z,10.17
2018-09-04T20:16:23.668Z,10.53
2018-09-04T20:18:52.597Z,9.10
2018-09-04T20:21:22.361Z,10.77
2018-09-04T20:23:51.300Z,10.30
2018-09-04T20:26:21.125Z,9.73
2018-09-04T20:28:50.090Z,10.37
2018-09-04T20:31:19.041Z,10.50
2018-09-04T20:33:47.993Z,11.73
2018-09-04T20:36:16.924Z,10.90
2018-09-04T20:38:45.904Z,10.03
2018-09-04T20:41:14.861Z,11.10
2018-09-04T20:43:43.809Z,11.17
2018-09-04T20:46:12.898Z,10.37
2018-09-04T20:48:41.899Z,10.83
2018-09-04T20:51:10.920Z,10.50
2018-09-04T20:53:50.464Z,9.37
2018-09-04T20:56:20.406Z,8.90
2018-09-04T20:59:00.599Z,9.53
2018-09-04T21:01:40.731Z,9.40
2018-09-04T21:04:20.821Z,9.67
2018-09-04T21:06:50.144Z,9.50
2018-09-04T21:09:39.572Z,11.03
2018-09-04T21:12:10.278Z,8.80
2018-09-04T21:14:39.672Z,9.00
2018-09-04T21:17:08.845Z,8.80
2018-09-04T21:19:37.883Z,10.20
2018-09-04T21:22:06.929Z,10.10
2018-09-04T21:24:35.897Z,8.90
2018-09-04T21:27:04.859Z,9.70
2018-09-04T21:29:34.193Z,9.83
2018-09-04T21:32:03.162Z,10.07
2018-09-04T21:34:32.113Z,9.77
2018-09-04T21:37:01.077Z,9.70
2018-09-04T21:39:30.495Z,10.33
2018-09-04T21:41:59.449Z,9.90
2018-09-04T21:44:28.514Z,10.33
2018-09-04T21:46:57.454Z,11.23
2018-09-04T21:49:26.421Z,10.63
2018-09-04T21:51:55.351Z,10.93
2018-09-04T21:54:24.595Z,11.27
2018-09-04T21:56:53.536Z,9.53
2018-09-04T21:59:22.460Z,9.67
2018-09-04T22:01:51.400Z,9.10
2018-09-04T22:04:20.396Z,10.17
2018-09-04T22:06:49.389Z,8.63
2018-09-04T22:09:19.626Z,9.60
2018-09-04T22:11:48.604Z,9.60
2018-09-04T22:14:17.536Z,9.23
2018-09-04T22:16:46.484Z,10.40
2018-09-04T22:19:15.480Z,10.40
2018-09-04T22:21:44.483Z,9.60
2018-09-04T22:24:13.401Z,9.67
2018-09-04T22:26:42.345Z,9.27
2018-09-04T22:29:11.265Z,9.70
2018-09-04T22:31:40.364Z,10.03
2018-09-04T22:34:09.327Z,10.17
2018-09-04T22:36:38.356Z,10.70
2018-09-04T22:39:07.896Z,10.50
2018-09-04T22:41:36.848Z,10.47
2018-09-04T22:44:05.805Z,10.33
2018-09-04T22:46:34.789Z,11.67
2018-09-04T22:49:03.770Z,10.87
2018-09-04T22:51:37.074Z,11.10
2018-09-04T22:54:07.228Z,10.00
2018-09-04T22:56:37.012Z,11.50
2018-09-04T22:59:05.931Z,12.57
2018-09-04T23:01:34.972Z,11.50
2018-09-04T23:04:03.915Z,9.90
2018-09-04T23:06:33.681Z,11.80
2018-09-04T23:09:02.828Z,11.50
2018-09-04T23:11:31.760Z,10.70
2018-09-04T23:14:00.697Z,10.93
2018-09-04T23:16:29.658Z,11.00
2018-09-04T23:18:58.627Z,11.83
2018-09-04T23:21:27.560Z,10.57
2018-09-04T23:23:56.494Z,10.67
2018-09-04T23:26:25.505Z,11.57
2018-09-04T23:28:54.445Z,12.57
2018-09-04T23:31:23.388Z,12.37
2018-09-04T23:33:52.332Z,11.77
2018-09-04T23:36:21.318Z,11.87
2018-09-04T23:38:50.290Z,12.67
2018-09-04T23:41:19.298Z,12.73
2018-09-04T23:43:48.209Z,11.90
2018-09-04T23:46:17.155Z,12.77
2018-09-04T23:48:46.076Z,12.07
2018-09-04T23:51:15.025Z,12.60
2018-09-04T23:53:43.996Z,12.53
2018-09-04T23:56:45.469Z,10.83
2018-09-04T23:59:14.441Z,11.10
